sensor_id;sensor_type;location;lat;lon;timestamp;P1;durP1;ratioP1;P2;durP2;ratioP2
3207;SDS011;1616;52.394;9.756;2024-03-06T00:00:09;20.73;;;11.70;;
3207;SDS011;1616;52.394;9.756;2024-03-06T00:02:36;18.60;;;11.10;;
3207;SDS011;1616;52.394;9.756;2024-03-06T00:05:01;22.80;;;13.37;;
3207;SDS011;1616;52.394;9.756;2024-03-06T00:07:27;17.93;;;10.53;;
3207;SDS011;1616;52.394;9.756;2024-03-06T00:09:53;16.97;;;12.43;;
3207;SDS011;1616;52.394;9.756;2024-03-06T00:12:19;16.60;;;11.33;;
3207;SDS011;1616;52.394;9.756;2024-03-06T00:14:44;16.77;;;11.10;;
3207;SDS011;1616;52.394;9.756;2024-03-06T00:17:10;19.53;;;11.77;;
3207;SDS011;1616;52.394;9.756;2024-03-06T00:19:35;22.53;;;13.20;;
3207;SDS011;1616;52.394;9.756;2024-03-06T00:22:01;20.57;;;13.07;;
3207;SDS011;1616;52.394;9.756;2024-03-06T00:24:27;16.40;;;12.10;;
3207;SDS011;1616;52.394;9.756;2024-03-06T00:26:53;21.03;;;13.90;;
3207;SDS011;1616;52.394;9.756;2024-03-06T00:29:18;15.43;;;11.83;;
3207;SDS011;1616;52.394;9.756;2024-03-06T00:31:44;17.67;;;12.63;;
3207;SDS011;1616;52.394;9.756;2024-03-06T00:34:11;17.23;;;12.33;;
3207;SDS011;1616;52.394;9.756;2024-03-06T00:36:41;18.43;;;12.87;;
3207;SDS011;1616;52.394;9.756;2024-03-06T00:39:08;22.63;;;13.53;;
3207;SDS011;1616;52.394;9.756;2024-03-06T00:41:34;13.47;;;11.13;;
3207;SDS011;1616;52.394;9.756;2024-03-06T00:44:01;23.37;;;12.57;;
3207;SDS011;1616;52.394;9.756;2024-03-06T00:46:27;22.37;;;12.10;;
3207;SDS011;1616;52.394;9.756;2024-03-06T00:48:53;18.00;;;11.27;;
3207;SDS011;1616;52.394;9.756;2024-03-06T00:51:22;24.37;;;11.30;;
3207;SDS011;1616;52.394;9.756;2024-03-06T00:53:48;17.27;;;11.93;;
3207;SDS011;1616;52.394;9.756;2024-03-06T00:56:14;23.47;;;12.20;;
3207;SDS011;1616;52.394;9.756;2024-03-06T00:58:39;17.70;;;12.13;;
3207;SDS011;1616;52.394;9.756;2024-03-06T01:01:05;19.47;;;13.53;;
3207;SDS011;1616;52.394;9.756;2024-03-06T01:03:30;20.17;;;13.10;;
3207;SDS011;1616;52.394;9.756;2024-03-06T01:05:56;21.93;;;12.00;;
3207;SDS011;1616;52.394;9.756;2024-03-06T01:08:22;19.73;;;11.47;;
3207;SDS011;1616;52.394;9.756;2024-03-06T01:10:50;20.13;;;12.83;;
3207;SDS011;1616;52.394;9.756;2024-03-06T01:13:19;17.80;;;12.40;;
3207;SDS011;1616;52.394;9.756;2024-03-06T01:15:45;19.40;;;12.60;;
3207;SDS011;1616;52.394;9.756;2024-03-06T01:18:12;24.73;;;13.30;;
3207;SDS011;1616;52.394;9.756;2024-03-06T01:20:38;19.73;;;13.90;;
3207;SDS011;1616;52.394;9.756;2024-03-06T01:23:04;21.40;;;11.80;;
3207;SDS011;1616;52.394;9.756;2024-03-06T01:25:29;20.07;;;12.30;;
3207;SDS011;1616;52.394;9.756;2024-03-06T01:27:55;19.57;;;12.70;;
3207;SDS011;1616;52.394;9.756;2024-03-06T01:30:21;19.13;;;13.23;;
3207;SDS011;1616;52.394;9.756;2024-03-06T01:32:46;18.40;;;12.60;;
3207;SDS011;1616;52.394;9.756;2024-03-06T01:35:12;17.10;;;13.37;;
3207;SDS011;1616;52.394;9.756;2024-03-06T01:37:38;21.50;;;13.97;;
3207;SDS011;1616;52.394;9.756;2024-03-06T01:40:04;19.57;;;14.33;;
3207;SDS011;1616;52.394;9.756;2024-03-06T01:42:30;18.30;;;12.53;;
3207;SDS011;1616;52.394;9.756;2024-03-06T01:44:56;16.90;;;13.17;;
3207;SDS011;1616;52.394;9.756;2024-03-06T01:47:22;21.47;;;12.80;;
3207;SDS011;1616;52.394;9.756;2024-03-06T01:49:47;19.67;;;12.70;;
3207;SDS011;1616;52.394;9.756;2024-03-06T01:52:14;17.03;;;12.30;;
3207;SDS011;1616;52.394;9.756;2024-03-06T01:54:41;22.10;;;12.90;;
3207;SDS011;1616;52.394;9.756;2024-03-06T01:57:08;21.93;;;14.40;;
3207;SDS011;1616;52.394;9.756;2024-03-06T01:59:35;18.17;;;13.40;;
3207;SDS011;1616;52.394;9.756;2024-03-06T02:02:00;20.20;;;12.07;;
3207;SDS011;1616;52.394;9.756;2024-03-06T02:04:28;23.00;;;13.00;;
3207;SDS011;1616;52.394;9.756;2024-03-06T02:06:54;23.40;;;14.03;;
3207;SDS011;1616;52.394;9.756;2024-03-06T02:09:20;20.87;;;14.27;;
3207;SDS011;1616;52.394;9.756;2024-03-06T02:11:45;24.40;;;13.90;;
3207;SDS011;1616;52.394;9.756;2024-03-06T02:14:11;19.83;;;13.07;;
3207;SDS011;1616;52.394;9.756;2024-03-06T02:16:37;20.77;;;15.13;;
3207;SDS011;1616;52.394;9.756;2024-03-06T02:19:07;20.00;;;13.50;;
3207;SDS011;1616;52.394;9.756;2024-03-06T02:21:33;22.50;;;13.80;;
3207;SDS011;1616;52.394;9.756;2024-03-06T02:23:59;21.47;;;13.97;;
3207;SDS011;1616;52.394;9.756;2024-03-06T02:26:25;24.13;;;14.47;;
3207;SDS011;1616;52.394;9.756;2024-03-06T02:28:52;20.00;;;13.30;;
3207;SDS011;1616;52.394;9.756;2024-03-06T02:31:20;27.93;;;13.07;;
3207;SDS011;1616;52.394;9.756;2024-03-06T02:33:47;28.77;;;13.60;;
3207;SDS011;1616;52.394;9.756;2024-03-06T02:36:13;24.20;;;13.37;;
3207;SDS011;1616;52.394;9.756;2024-03-06T02:38:39;21.27;;;14.40;;
3207;SDS011;1616;52.394;9.756;2024-03-06T02:41:05;22.00;;;13.83;;
3207;SDS011;1616;52.394;9.756;2024-03-06T02:43:32;19.03;;;12.60;;
3207;SDS011;1616;52.394;9.756;2024-03-06T02:45:58;23.67;;;13.77;;
3207;SDS011;1616;52.394;9.756;2024-03-06T02:48:24;26.13;;;12.60;;
3207;SDS011;1616;52.394;9.756;2024-03-06T02:50:49;28.40;;;13.97;;
3207;SDS011;1616;52.394;9.756;2024-03-06T02:53:15;21.23;;;13.50;;
3207;SDS011;1616;52.394;9.756;2024-03-06T02:55:41;27.23;;;14.27;;
3207;SDS011;1616;52.394;9.756;2024-03-06T02:58:06;18.93;;;13.43;;
3207;SDS011;1616;52.394;9.756;2024-03-06T03:00:32;26.40;;;14.93;;
3207;SDS011;1616;52.394;9.756;2024-03-06T03:02:58;23.40;;;14.53;;
3207;SDS011;1616;52.394;9.756;2024-03-06T03:05:23;26.00;;;14.43;;
3207;SDS011;1616;52.394;9.756;2024-03-06T03:07:50;20.90;;;13.33;;
3207;SDS011;1616;52.394;9.756;2024-03-06T03:10:16;22.03;;;13.60;;
3207;SDS011;1616;52.394;9.756;2024-03-06T03:12:43;19.50;;;12.60;;
3207;SDS011;1616;52.394;9.756;2024-03-06T03:15:09;29.27;;;13.60;;
3207;SDS011;1616;52.394;9.756;2024-03-06T03:17:35;20.20;;;12.60;;
3207;SDS011;1616;52.394;9.756;2024-03-06T03:20:03;21.80;;;14.53;;
3207;SDS011;1616;52.394;9.756;2024-03-06T03:22:38;22.50;;;13.57;;
3207;SDS011;1616;52.394;9.756;2024-03-06T03:25:11;22.17;;;14.00;;
3207;SDS011;1616;52.394;9.756;2024-03-06T03:27:38;17.20;;;13.17;;
3207;SDS011;1616;52.394;9.756;2024-03-06T03:30:11;21.57;;;13.47;;
3207;SDS011;1616;52.394;9.756;2024-03-06T03:32:38;20.27;;;13.60;;
3207;SDS011;1616;52.394;9.756;2024-03-06T03:35:04;32.30;;;14.10;;
3207;SDS011;1616;52.394;9.756;2024-03-06T03:37:30;27.53;;;13.87;;
3207;SDS011;1616;52.394;9.756;2024-03-06T03:39:56;21.80;;;13.17;;
3207;SDS011;1616;52.394;9.756;2024-03-06T03:42:22;23.10;;;13.33;;
3207;SDS011;1616;52.394;9.756;2024-03-06T03:44:48;19.40;;;13.13;;
3207;SDS011;1616;52.394;9.756;2024-03-06T03:47:14;19.93;;;13.33;;
3207;SDS011;1616;52.394;9.756;2024-03-06T03:49:39;25.13;;;15.90;;
3207;SDS011;1616;52.394;9.756;2024-03-06T03:52:05;20.03;;;12.90;;
3207;SDS011;1616;52.394;9.756;2024-03-06T03:54:31;25.30;;;12.20;;
3207;SDS011;1616;52.394;9.756;2024-03-06T03:56:57;20.23;;;13.63;;
3207;SDS011;1616;52.394;9.756;2024-03-06T03:59:24;16.30;;;12.27;;
3207;SDS011;1616;52.394;9.756;2024-03-06T04:01:51;22.53;;;13.33;;
3207;SDS011;1616;52.394;9.756;2024-03-06T04:04:17;19.80;;;13.33;;
3207;SDS011;1616;52.394;9.756;2024-03-06T04:06:42;20.77;;;12.60;;
3207;SDS011;1616;52.394;9.756;2024-03-06T04:09:08;19.40;;;13.37;;
3207;SDS011;1616;52.394;9.756;2024-03-06T04:11:37;23.27;;;13.60;;
3207;SDS011;1616;52.394;9.756;2024-03-06T04:14:04;22.80;;;14.07;;
3207;SDS011;1616;52.394;9.756;2024-03-06T04:16:31;19.77;;;12.80;;
3207;SDS011;1616;52.394;9.756;2024-03-06T04:18:58;20.00;;;14.63;;
3207;SDS011;1616;52.394;9.756;2024-03-06T04:21:23;21.80;;;14.27;;
3207;SDS011;1616;52.394;9.756;2024-03-06T04:23:49;22.10;;;14.27;;
3207;SDS011;1616;52.394;9.756;2024-03-06T04:26:16;19.00;;;12.93;;
3207;SDS011;1616;52.394;9.756;2024-03-06T04:28:43;24.50;;;13.93;;
3207;SDS011;1616;52.394;9.756;2024-03-06T04:31:09;23.87;;;14.43;;
3207;SDS011;1616;52.394;9.756;2024-03-06T04:33:35;19.40;;;14.70;;
3207;SDS011;1616;52.394;9.756;2024-03-06T04:36:02;20.87;;;12.90;;
3207;SDS011;1616;52.394;9.756;2024-03-06T04:38:28;21.20;;;15.57;;
3207;SDS011;1616;52.394;9.756;2024-03-06T04:40:54;24.83;;;14.10;;
3207;SDS011;1616;52.394;9.756;2024-03-06T04:43:19;22.33;;;13.83;;
3207;SDS011;1616;52.394;9.756;2024-03-06T04:45:45;21.03;;;13.60;;
3207;SDS011;1616;52.394;9.756;2024-03-06T04:48:11;24.50;;;14.30;;
3207;SDS011;1616;52.394;9.756;2024-03-06T04:50:37;24.33;;;13.47;;
3207;SDS011;1616;52.394;9.756;2024-03-06T04:53:02;25.77;;;13.63;;
3207;SDS011;1616;52.394;9.756;2024-03-06T04:55:28;21.97;;;14.90;;
3207;SDS011;1616;52.394;9.756;2024-03-06T04:57:55;21.67;;;13.70;;
3207;SDS011;1616;52.394;9.756;2024-03-06T05:00:21;23.43;;;15.33;;
3207;SDS011;1616;52.394;9.756;2024-03-06T05:02:48;22.27;;;14.03;;
3207;SDS011;1616;52.394;9.756;2024-03-06T05:05:16;21.70;;;14.07;;
3207;SDS011;1616;52.394;9.756;2024-03-06T05:07:42;26.63;;;15.70;;
3207;SDS011;1616;52.394;9.756;2024-03-06T05:10:08;26.70;;;14.43;;
3207;SDS011;1616;52.394;9.756;2024-03-06T05:12:34;20.70;;;14.13;;
3207;SDS011;1616;52.394;9.756;2024-03-06T05:15:00;22.40;;;14.80;;
3207;SDS011;1616;52.394;9.756;2024-03-06T05:17:28;21.10;;;13.70;;
3207;SDS011;1616;52.394;9.756;2024-03-06T05:19:55;27.33;;;14.73;;
3207;SDS011;1616;52.394;9.756;2024-03-06T05:22:20;21.57;;;13.67;;
3207;SDS011;1616;52.394;9.756;2024-03-06T05:24:46;24.97;;;16.27;;
3207;SDS011;1616;52.394;9.756;2024-03-06T05:27:12;23.77;;;13.70;;
3207;SDS011;1616;52.394;9.756;2024-03-06T05:29:42;22.00;;;13.93;;
3207;SDS011;1616;52.394;9.756;2024-03-06T05:32:08;23.57;;;13.40;;
3207;SDS011;1616;52.394;9.756;2024-03-06T05:34:35;30.43;;;14.53;;
3207;SDS011;1616;52.394;9.756;2024-03-06T05:37:01;25.53;;;15.03;;
3207;SDS011;1616;52.394;9.756;2024-03-06T05:39:29;27.90;;;15.20;;
3207;SDS011;1616;52.394;9.756;2024-03-06T05:41:55;29.93;;;15.67;;
3207;SDS011;1616;52.394;9.756;2024-03-06T05:44:25;27.47;;;14.17;;
3207;SDS011;1616;52.394;9.756;2024-03-06T05:46:51;30.13;;;16.70;;
3207;SDS011;1616;52.394;9.756;2024-03-06T05:49:18;25.03;;;14.87;;
3207;SDS011;1616;52.394;9.756;2024-03-06T05:51:43;23.30;;;14.47;;
3207;SDS011;1616;52.394;9.756;2024-03-06T05:54:10;21.90;;;14.03;;
3207;SDS011;1616;52.394;9.756;2024-03-06T05:56:36;26.30;;;15.40;;
3207;SDS011;1616;52.394;9.756;2024-03-06T05:59:01;25.67;;;14.83;;
3207;SDS011;1616;52.394;9.756;2024-03-06T06:01:30;27.60;;;16.27;;
3207;SDS011;1616;52.394;9.756;2024-03-06T06:03:56;21.80;;;13.90;;
3207;SDS011;1616;52.394;9.756;2024-03-06T06:06:22;27.07;;;15.57;;
3207;SDS011;1616;52.394;9.756;2024-03-06T06:08:47;26.97;;;15.10;;
3207;SDS011;1616;52.394;9.756;2024-03-06T06:11:13;25.53;;;14.60;;
3207;SDS011;1616;52.394;9.756;2024-03-06T06:13:39;22.83;;;16.03;;
3207;SDS011;1616;52.394;9.756;2024-03-06T06:16:05;36.50;;;16.70;;
3207;SDS011;1616;52.394;9.756;2024-03-06T06:18:31;24.23;;;15.13;;
3207;SDS011;1616;52.394;9.756;2024-03-06T06:20:57;23.93;;;16.90;;
3207;SDS011;1616;52.394;9.756;2024-03-06T06:23:23;30.37;;;14.93;;
3207;SDS011;1616;52.394;9.756;2024-03-06T06:25:49;23.03;;;16.40;;
3207;SDS011;1616;52.394;9.756;2024-03-06T06:28:15;29.37;;;14.70;;
3207;SDS011;1616;52.394;9.756;2024-03-06T06:30:41;23.70;;;15.73;;
3207;SDS011;1616;52.394;9.756;2024-03-06T06:33:08;23.80;;;14.83;;
3207;SDS011;1616;52.394;9.756;2024-03-06T06:35:35;25.30;;;14.20;;
3207;SDS011;1616;52.394;9.756;2024-03-06T06:38:01;23.77;;;15.83;;
3207;SDS011;1616;52.394;9.756;2024-03-06T06:40:28;25.07;;;15.63;;
3207;SDS011;1616;52.394;9.756;2024-03-06T06:42:54;27.83;;;15.27;;
3207;SDS011;1616;52.394;9.756;2024-03-06T06:45:20;26.40;;;16.60;;
3207;SDS011;1616;52.394;9.756;2024-03-06T06:47:48;27.60;;;16.20;;
3207;SDS011;1616;52.394;9.756;2024-03-06T06:50:14;27.47;;;16.07;;
3207;SDS011;1616;52.394;9.756;2024-03-06T06:52:41;28.47;;;16.73;;
3207;SDS011;1616;52.394;9.756;2024-03-06T06:55:07;31.77;;;17.63;;
3207;SDS011;1616;52.394;9.756;2024-03-06T06:57:37;22.70;;;15.90;;
3207;SDS011;1616;52.394;9.756;2024-03-06T07:00:03;26.10;;;16.27;;
3207;SDS011;1616;52.394;9.756;2024-03-06T07:02:41;28.57;;;16.87;;
3207;SDS011;1616;52.394;9.756;2024-03-06T07:05:07;28.60;;;15.57;;
3207;SDS011;1616;52.394;9.756;2024-03-06T07:07:34;23.80;;;15.63;;
3207;SDS011;1616;52.394;9.756;2024-03-06T07:10:00;24.13;;;16.40;;
3207;SDS011;1616;52.394;9.756;2024-03-06T07:12:27;23.70;;;14.83;;
3207;SDS011;1616;52.394;9.756;2024-03-06T07:14:52;24.13;;;16.13;;
3207;SDS011;1616;52.394;9.756;2024-03-06T07:17:18;25.57;;;16.10;;
3207;SDS011;1616;52.394;9.756;2024-03-06T07:19:43;27.37;;;15.20;;
3207;SDS011;1616;52.394;9.756;2024-03-06T07:22:09;26.33;;;15.47;;
3207;SDS011;1616;52.394;9.756;2024-03-06T07:24:35;26.97;;;15.67;;
3207;SDS011;1616;52.394;9.756;2024-03-06T07:27:02;30.00;;;16.50;;
3207;SDS011;1616;52.394;9.756;2024-03-06T07:29:30;24.00;;;14.67;;
3207;SDS011;1616;52.394;9.756;2024-03-06T07:31:56;27.60;;;15.40;;
3207;SDS011;1616;52.394;9.756;2024-03-06T07:34:21;23.47;;;15.60;;
3207;SDS011;1616;52.394;9.756;2024-03-06T07:36:47;31.20;;;15.90;;
3207;SDS011;1616;52.394;9.756;2024-03-06T07:39:17;25.90;;;15.73;;
3207;SDS011;1616;52.394;9.756;2024-03-06T07:41:43;23.43;;;15.87;;
3207;SDS011;1616;52.394;9.756;2024-03-06T07:44:09;36.47;;;17.07;;
3207;SDS011;1616;52.394;9.756;2024-03-06T07:46:35;26.17;;;15.47;;
3207;SDS011;1616;52.394;9.756;2024-03-06T07:49:02;26.53;;;15.27;;
3207;SDS011;1616;52.394;9.756;2024-03-06T07:51:28;30.70;;;15.80;;
3207;SDS011;1616;52.394;9.756;2024-03-06T07:53:55;23.50;;;16.67;;
3207;SDS011;1616;52.394;9.756;2024-03-06T07:56:22;23.60;;;15.30;;
3207;SDS011;1616;52.394;9.756;2024-03-06T07:58:48;27.60;;;16.10;;
3207;SDS011;1616;52.394;9.756;2024-03-06T08:01:14;23.23;;;14.73;;
3207;SDS011;1616;52.394;9.756;2024-03-06T08:03:40;30.83;;;15.20;;
3207;SDS011;1616;52.394;9.756;2024-03-06T08:06:08;21.90;;;15.33;;
3207;SDS011;1616;52.394;9.756;2024-03-06T08:08:35;24.17;;;15.13;;
3207;SDS011;1616;52.394;9.756;2024-03-06T08:11:01;26.43;;;15.30;;
3207;SDS011;1616;52.394;9.756;2024-03-06T08:13:27;30.73;;;15.37;;
3207;SDS011;1616;52.394;9.756;2024-03-06T08:15:53;34.10;;;15.20;;
3207;SDS011;1616;52.394;9.756;2024-03-06T08:18:19;24.23;;;15.87;;
3207;SDS011;1616;52.394;9.756;2024-03-06T08:20:45;25.83;;;15.77;;
3207;SDS011;1616;52.394;9.756;2024-03-06T08:23:10;16.67;;;12.70;;
3207;SDS011;1616;52.394;9.756;2024-03-06T08:25:36;23.43;;;15.70;;
3207;SDS011;1616;52.394;9.756;2024-03-06T08:28:01;22.30;;;14.90;;
3207;SDS011;1616;52.394;9.756;2024-03-06T08:30:31;21.80;;;15.20;;
3207;SDS011;1616;52.394;9.756;2024-03-06T08:32:57;28.47;;;17.27;;
3207;SDS011;1616;52.394;9.756;2024-03-06T08:35:23;32.07;;;15.07;;
3207;SDS011;1616;52.394;9.756;2024-03-06T08:37:49;22.53;;;14.43;;
3207;SDS011;1616;52.394;9.756;2024-03-06T08:40:15;30.53;;;16.23;;
3207;SDS011;1616;52.394;9.756;2024-03-06T08:42:48;30.50;;;16.13;;
3207;SDS011;1616;52.394;9.756;2024-03-06T08:45:14;23.90;;;16.13;;
3207;SDS011;1616;52.394;9.756;2024-03-06T08:47:41;28.83;;;15.43;;
3207;SDS011;1616;52.394;9.756;2024-03-06T08:50:09;22.73;;;16.17;;
3207;SDS011;1616;52.394;9.756;2024-03-06T08:52:35;25.30;;;15.03;;
3207;SDS011;1616;52.394;9.756;2024-03-06T08:55:02;25.87;;;16.50;;
3207;SDS011;1616;52.394;9.756;2024-03-06T08:57:31;29.33;;;16.50;;
3207;SDS011;1616;52.394;9.756;2024-03-06T08:59:58;35.20;;;17.20;;
3207;SDS011;1616;52.394;9.756;2024-03-06T09:02:25;35.33;;;17.80;;
3207;SDS011;1616;52.394;9.756;2024-03-06T09:04:52;27.87;;;16.10;;
3207;SDS011;1616;52.394;9.756;2024-03-06T09:07:17;22.17;;;16.20;;
3207;SDS011;1616;52.394;9.756;2024-03-06T09:09:44;20.43;;;15.17;;
3207;SDS011;1616;52.394;9.756;2024-03-06T09:12:11;26.30;;;16.77;;
3207;SDS011;1616;52.394;9.756;2024-03-06T09:14:38;29.77;;;17.07;;
3207;SDS011;1616;52.394;9.756;2024-03-06T09:17:04;29.40;;;16.97;;
3207;SDS011;1616;52.394;9.756;2024-03-06T09:19:31;32.57;;;16.77;;
3207;SDS011;1616;52.394;9.756;2024-03-06T09:21:57;31.67;;;17.60;;
3207;SDS011;1616;52.394;9.756;2024-03-06T09:24:24;26.17;;;16.83;;
3207;SDS011;1616;52.394;9.756;2024-03-06T09:26:53;28.33;;;17.77;;
3207;SDS011;1616;52.394;9.756;2024-03-06T09:29:20;23.63;;;15.90;;
3207;SDS011;1616;52.394;9.756;2024-03-06T09:31:47;30.03;;;18.00;;
3207;SDS011;1616;52.394;9.756;2024-03-06T09:34:13;35.83;;;19.17;;
3207;SDS011;1616;52.394;9.756;2024-03-06T09:36:40;30.87;;;18.00;;
3207;SDS011;1616;52.394;9.756;2024-03-06T09:39:10;28.60;;;17.57;;
3207;SDS011;1616;52.394;9.756;2024-03-06T09:41:37;32.67;;;17.60;;
3207;SDS011;1616;52.394;9.756;2024-03-06T09:44:06;27.83;;;17.63;;
3207;SDS011;1616;52.394;9.756;2024-03-06T09:46:33;30.33;;;18.13;;
3207;SDS011;1616;52.394;9.756;2024-03-06T09:49:00;36.63;;;19.87;;
3207;SDS011;1616;52.394;9.756;2024-03-06T09:51:26;27.57;;;17.90;;
3207;SDS011;1616;52.394;9.756;2024-03-06T09:53:52;36.60;;;18.60;;
3207;SDS011;1616;52.394;9.756;2024-03-06T09:56:18;23.80;;;17.53;;
3207;SDS011;1616;52.394;9.756;2024-03-06T09:58:45;34.17;;;18.10;;
3207;SDS011;1616;52.394;9.756;2024-03-06T10:01:11;31.63;;;18.70;;
3207;SDS011;1616;52.394;9.756;2024-03-06T10:03:39;27.37;;;18.67;;
3207;SDS011;1616;52.394;9.756;2024-03-06T10:06:09;30.10;;;17.97;;
3207;SDS011;1616;52.394;9.756;2024-03-06T10:08:35;26.83;;;18.93;;
3207;SDS011;1616;52.394;9.756;2024-03-06T10:11:03;28.67;;;17.70;;
3207;SDS011;1616;52.394;9.756;2024-03-06T10:13:29;27.40;;;17.30;;
3207;SDS011;1616;52.394;9.756;2024-03-06T10:16:02;28.43;;;17.73;;
3207;SDS011;1616;52.394;9.756;2024-03-06T10:18:29;28.10;;;17.40;;
3207;SDS011;1616;52.394;9.756;2024-03-06T10:20:56;25.67;;;18.20;;
3207;SDS011;1616;52.394;9.756;2024-03-06T10:23:23;30.40;;;19.20;;
3207;SDS011;1616;52.394;9.756;2024-03-06T10:25:49;30.07;;;18.80;;
3207;SDS011;1616;52.394;9.756;2024-03-06T10:28:18;29.37;;;19.53;;
3207;SDS011;1616;52.394;9.756;2024-03-06T10:30:44;27.20;;;18.83;;
3207;SDS011;1616;52.394;9.756;2024-03-06T10:33:12;28.30;;;18.23;;
3207;SDS011;1616;52.394;9.756;2024-03-06T10:35:40;29.43;;;18.13;;
3207;SDS011;1616;52.394;9.756;2024-03-06T10:38:08;26.60;;;19.40;;
3207;SDS011;1616;52.394;9.756;2024-03-06T10:40:35;29.37;;;18.47;;
3207;SDS011;1616;52.394;9.756;2024-03-06T10:43:02;27.40;;;18.87;;
3207;SDS011;1616;52.394;9.756;2024-03-06T10:46:12;28.13;;;17.63;;
3207;SDS011;1616;52.394;9.756;2024-03-06T10:48:25;30.33;;;19.33;;
3207;SDS011;1616;52.394;9.756;2024-03-06T10:50:53;29.53;;;18.23;;
3207;SDS011;1616;52.394;9.756;2024-03-06T10:53:19;32.50;;;19.50;;
3207;SDS011;1616;52.394;9.756;2024-03-06T10:55:46;32.50;;;18.27;;
3207;SDS011;1616;52.394;9.756;2024-03-06T10:58:14;31.10;;;16.43;;
3207;SDS011;1616;52.394;9.756;2024-03-06T11:00:45;31.07;;;18.30;;
3207;SDS011;1616;52.394;9.756;2024-03-06T11:03:12;23.30;;;17.30;;
3207;SDS011;1616;52.394;9.756;2024-03-06T11:05:39;21.53;;;16.00;;
3207;SDS011;1616;52.394;9.756;2024-03-06T11:08:10;37.97;;;17.40;;
3207;SDS011;1616;52.394;9.756;2024-03-06T11:10:37;34.30;;;17.97;;
3207;SDS011;1616;52.394;9.756;2024-03-06T11:15:48;28.33;;;16.70;;
3207;SDS011;1616;52.394;9.756;2024-03-06T11:23:29;26.00;;;17.40;;
3207;SDS011;1616;52.394;9.756;2024-03-06T11:28:32;27.27;;;17.80;;
3207;SDS011;1616;52.394;9.756;2024-03-06T11:31:00;22.60;;;16.33;;
3207;SDS011;1616;52.394;9.756;2024-03-06T11:36:17;22.40;;;15.83;;
3207;SDS011;1616;52.394;9.756;2024-03-06T11:41:28;33.03;;;17.20;;
3207;SDS011;1616;52.394;9.756;2024-03-06T11:43:55;24.33;;;17.60;;
3207;SDS011;1616;52.394;9.756;2024-03-06T11:46:22;25.07;;;16.90;;
3207;SDS011;1616;52.394;9.756;2024-03-06T11:49:04;29.23;;;18.07;;
3207;SDS011;1616;52.394;9.756;2024-03-06T11:51:47;27.77;;;17.90;;
3207;SDS011;1616;52.394;9.756;2024-03-06T11:54:14;29.40;;;16.67;;
3207;SDS011;1616;52.394;9.756;2024-03-06T11:56:42;29.97;;;15.97;;
3207;SDS011;1616;52.394;9.756;2024-03-06T11:59:10;22.13;;;17.83;;
3207;SDS011;1616;52.394;9.756;2024-03-06T12:01:36;28.43;;;17.10;;
3207;SDS011;1616;52.394;9.756;2024-03-06T12:04:02;29.20;;;16.80;;
3207;SDS011;1616;52.394;9.756;2024-03-06T12:06:29;21.27;;;16.57;;
3207;SDS011;1616;52.394;9.756;2024-03-06T12:08:57;24.80;;;16.83;;
3207;SDS011;1616;52.394;9.756;2024-03-06T12:11:23;35.30;;;18.27;;
3207;SDS011;1616;52.394;9.756;2024-03-06T12:13:51;22.53;;;15.70;;
3207;SDS011;1616;52.394;9.756;2024-03-06T12:16:17;28.83;;;17.10;;
3207;SDS011;1616;52.394;9.756;2024-03-06T12:18:43;28.40;;;18.50;;
3207;SDS011;1616;52.394;9.756;2024-03-06T12:21:13;27.17;;;16.43;;
3207;SDS011;1616;52.394;9.756;2024-03-06T12:23:41;23.00;;;17.57;;
3207;SDS011;1616;52.394;9.756;2024-03-06T12:26:07;36.20;;;18.93;;
3207;SDS011;1616;52.394;9.756;2024-03-06T12:28:35;27.17;;;17.63;;
3207;SDS011;1616;52.394;9.756;2024-03-06T12:31:02;23.13;;;16.00;;
3207;SDS011;1616;52.394;9.756;2024-03-06T12:33:28;28.90;;;16.63;;
3207;SDS011;1616;52.394;9.756;2024-03-06T12:36:04;20.80;;;15.53;;
3207;SDS011;1616;52.394;9.756;2024-03-06T12:38:31;29.10;;;16.90;;
3207;SDS011;1616;52.394;9.756;2024-03-06T12:40:57;28.33;;;17.87;;
3207;SDS011;1616;52.394;9.756;2024-03-06T12:43:24;26.40;;;17.00;;
3207;SDS011;1616;52.394;9.756;2024-03-06T12:45:50;27.07;;;16.43;;
3207;SDS011;1616;52.394;9.756;2024-03-06T12:48:20;32.23;;;19.50;;
3207;SDS011;1616;52.394;9.756;2024-03-06T12:50:46;22.90;;;17.20;;
3207;SDS011;1616;52.394;9.756;2024-03-06T12:53:17;24.50;;;17.63;;
3207;SDS011;1616;52.394;9.756;2024-03-06T12:55:47;22.57;;;17.53;;
3207;SDS011;1616;52.394;9.756;2024-03-06T12:58:13;26.40;;;17.50;;
3207;SDS011;1616;52.394;9.756;2024-03-06T13:00:40;25.97;;;17.57;;
3207;SDS011;1616;52.394;9.756;2024-03-06T13:03:06;25.73;;;17.07;;
3207;SDS011;1616;52.394;9.756;2024-03-06T13:05:32;23.77;;;17.20;;
3207;SDS011;1616;52.394;9.756;2024-03-06T13:07:58;21.50;;;17.07;;
3207;SDS011;1616;52.394;9.756;2024-03-06T13:10:26;24.53;;;18.27;;
3207;SDS011;1616;52.394;9.756;2024-03-06T13:12:53;23.43;;;18.23;;
3207;SDS011;1616;52.394;9.756;2024-03-06T13:15:19;22.30;;;18.57;;
3207;SDS011;1616;52.394;9.756;2024-03-06T13:17:46;28.30;;;19.20;;
3207;SDS011;1616;52.394;9.756;2024-03-06T13:20:12;33.57;;;18.70;;
3207;SDS011;1616;52.394;9.756;2024-03-06T13:22:38;23.97;;;19.20;;
3207;SDS011;1616;52.394;9.756;2024-03-06T13:25:03;26.93;;;19.20;;
3207;SDS011;1616;52.394;9.756;2024-03-06T13:27:30;32.67;;;20.13;;
3207;SDS011;1616;52.394;9.756;2024-03-06T13:29:56;21.43;;;17.87;;
3207;SDS011;1616;52.394;9.756;2024-03-06T13:32:21;40.10;;;18.97;;
3207;SDS011;1616;52.394;9.756;2024-03-06T13:34:47;31.80;;;19.10;;
3207;SDS011;1616;52.394;9.756;2024-03-06T13:37:14;29.83;;;18.40;;
3207;SDS011;1616;52.394;9.756;2024-03-06T13:39:40;22.57;;;17.27;;
3207;SDS011;1616;52.394;9.756;2024-03-06T13:42:06;40.03;;;21.43;;
3207;SDS011;1616;52.394;9.756;2024-03-06T13:44:33;24.83;;;18.57;;
3207;SDS011;1616;52.394;9.756;2024-03-06T13:47:03;27.13;;;17.87;;
3207;SDS011;1616;52.394;9.756;2024-03-06T13:49:36;37.80;;;19.23;;
3207;SDS011;1616;52.394;9.756;2024-03-06T13:52:04;30.60;;;18.70;;
3207;SDS011;1616;52.394;9.756;2024-03-06T13:54:30;30.87;;;19.50;;
3207;SDS011;1616;52.394;9.756;2024-03-06T13:56:56;28.30;;;19.20;;
3207;SDS011;1616;52.394;9.756;2024-03-06T13:59:28;27.90;;;19.10;;
3207;SDS011;1616;52.394;9.756;2024-03-06T14:01:57;25.30;;;18.80;;
3207;SDS011;1616;52.394;9.756;2024-03-06T14:04:27;26.80;;;18.27;;
3207;SDS011;1616;52.394;9.756;2024-03-06T14:06:53;26.40;;;19.23;;
3207;SDS011;1616;52.394;9.756;2024-03-06T14:09:19;29.50;;;17.20;;
3207;SDS011;1616;52.394;9.756;2024-03-06T14:11:45;33.40;;;20.30;;
3207;SDS011;1616;52.394;9.756;2024-03-06T14:14:11;30.90;;;19.30;;
3207;SDS011;1616;52.394;9.756;2024-03-06T14:16:39;28.23;;;18.67;;
3207;SDS011;1616;52.394;9.756;2024-03-06T14:19:05;33.00;;;19.67;;
3207;SDS011;1616;52.394;9.756;2024-03-06T14:21:31;28.80;;;19.17;;
3207;SDS011;1616;52.394;9.756;2024-03-06T14:23:59;28.30;;;18.90;;
3207;SDS011;1616;52.394;9.756;2024-03-06T14:26:29;31.13;;;17.80;;
3207;SDS011;1616;52.394;9.756;2024-03-06T14:28:55;27.87;;;18.87;;
3207;SDS011;1616;52.394;9.756;2024-03-06T14:31:22;22.83;;;17.47;;
3207;SDS011;1616;52.394;9.756;2024-03-06T14:33:49;26.97;;;16.97;;
3207;SDS011;1616;52.394;9.756;2024-03-06T14:36:15;26.43;;;16.20;;
3207;SDS011;1616;52.394;9.756;2024-03-06T14:38:42;23.57;;;17.53;;
3207;SDS011;1616;52.394;9.756;2024-03-06T14:41:09;29.03;;;17.57;;
3207;SDS011;1616;52.394;9.756;2024-03-06T14:43:35;29.07;;;17.27;;
3207;SDS011;1616;52.394;9.756;2024-03-06T14:46:06;24.27;;;15.57;;
3207;SDS011;1616;52.394;9.756;2024-03-06T14:48:33;24.87;;;16.33;;
3207;SDS011;1616;52.394;9.756;2024-03-06T14:50:59;23.40;;;16.63;;
3207;SDS011;1616;52.394;9.756;2024-03-06T14:53:25;23.30;;;16.20;;
3207;SDS011;1616;52.394;9.756;2024-03-06T14:55:51;25.67;;;17.30;;
3207;SDS011;1616;52.394;9.756;2024-03-06T14:58:17;25.20;;;15.60;;
3207;SDS011;1616;52.394;9.756;2024-03-06T15:00:42;21.90;;;16.67;;